createdAt,value
2023-03-18T00:01:04.231Z,100453.72
2023-03-18T00:03:33.212Z,100438.50
2023-03-18T00:06:06.401Z,100441.53
2023-03-18T00:08:34.881Z,100448.75
2023-03-18T00:11:05.539Z,100446.91
2023-03-18T00:13:34.707Z,100447.78
2023-03-18T00:16:03.128Z,100443.47
2023-03-18T00:18:31.578Z,100445.31
2023-03-18T00:21:01.090Z,100440.00
2023-03-18T00:23:29.379Z,100437.41
2023-03-18T00:25:59.925Z,100436.75
2023-03-18T00:28:31.416Z,100443.44
2023-03-18T00:31:05.165Z,100441.91
2023-03-18T00:33:33.725Z,100433.28
2023-03-18T00:36:02.175Z,100427.25
2023-03-18T00:38:30.439Z,100422.72
2023-03-18T00:41:11.343Z,100426.38
2023-03-18T00:43:47.376Z,100427.34
2023-03-18T00:46:17.831Z,100429.28
2023-03-18T00:48:46.334Z,100424.00
2023-03-18T00:51:17.184Z,100421.41
2023-03-18T00:53:47.351Z,100425.94
2023-03-18T00:56:16.454Z,100424.22
2023-03-18T00:58:46.783Z,100430.56
2023-03-18T01:01:15.554Z,100430.66
2023-03-18T01:03:44.360Z,100438.75
2023-03-18T01:06:14.323Z,100431.53
2023-03-18T01:08:43.067Z,100433.25
2023-03-18T01:11:11.450Z,100422.38
2023-03-18T01:13:40.422Z,100428.31
2023-03-18T01:16:10.943Z,100423.38
2023-03-18T01:18:40.684Z,100423.81
2023-03-18T01:21:09.494Z,100426.09
2023-03-18T01:23:37.737Z,100427.59
2023-03-18T01:26:06.577Z,100429.13
2023-03-18T01:28:35.007Z,100432.47
2023-03-18T01:31:03.315Z,100431.38
2023-03-18T01:33:33.516Z,100425.78
2023-03-18T01:36:03.810Z,100422.97
2023-03-18T01:38:32.876Z,100420.19
2023-03-18T01:41:02.492Z,100420.94
2023-03-18T01:43:33.964Z,100414.56
2023-03-18T01:46:04.100Z,100417.16
2023-03-18T01:48:39.689Z,100409.81
2023-03-18T01:51:10.145Z,100412.41
2023-03-18T01:53:48.979Z,100409.72
2023-03-18T01:56:18.243Z,100405.94
2023-03-18T01:58:48.693Z,100394.16
2023-03-18T02:01:21.219Z,100399.47
2023-03-18T02:03:52.115Z,100403.03
2023-03-18T02:06:20.368Z,100403.91
2023-03-18T02:08:49.148Z,100403.78
2023-03-18T02:11:17.562Z,100404.66
2023-03-18T02:13:46.788Z,100410.03
2023-03-18T02:16:19.731Z,100406.59
2023-03-18T02:18:52.219Z,100419.09
2023-03-18T02:21:49.132Z,100416.53
2023-03-18T02:24:26.326Z,100420.19
2023-03-18T02:27:00.910Z,100416.59
2023-03-18T02:29:32.913Z,100415.75
2023-03-18T02:32:02.804Z,100422.22
2023-03-18T02:34:31.402Z,100405.94
2023-03-18T02:36:59.833Z,100417.56
2023-03-18T02:39:29.951Z,100417.50
2023-03-18T02:41:58.358Z,100415.66
2023-03-18T02:44:27.015Z,100422.09
2023-03-18T02:46:58.673Z,100418.66
2023-03-18T02:49:27.669Z,100435.06
2023-03-18T02:51:56.407Z,100424.50
2023-03-18T02:54:26.868Z,100424.06
2023-03-18T02:56:55.745Z,100426.00
2023-03-18T02:59:24.430Z,100427.19
2023-03-18T03:01:53.778Z,100424.78
2023-03-18T03:04:25.729Z,100428.78
2023-03-18T03:06:54.645Z,100415.72
2023-03-18T03:09:22.925Z,100428.66
2023-03-18T03:11:51.515Z,100428.00
2023-03-18T03:14:19.747Z,100426.28
2023-03-18T03:16:48.525Z,100424.63
2023-03-18T03:19:17.020Z,100421.19
2023-03-18T03:21:46.569Z,100426.69
2023-03-18T03:24:14.646Z,100419.56
2023-03-18T03:26:42.711Z,100423.13
2023-03-18T03:29:12.609Z,100419.47
2023-03-18T03:31:40.724Z,100421.19
2023-03-18T03:34:08.827Z,100414.81
2023-03-18T03:36:37.030Z,100419.25
2023-03-18T03:39:07.204Z,100421.00
2023-03-18T03:41:35.675Z,100418.19
2023-03-18T03:44:03.782Z,100418.84
2023-03-18T03:46:32.350Z,100427.69
2023-03-18T03:49:00.475Z,100425.84
2023-03-18T03:51:29.334Z,100427.47
2023-03-18T03:53:57.677Z,100420.34
2023-03-18T03:56:27.172Z,100428.53
2023-03-18T03:58:55.249Z,100435.56
2023-03-18T04:01:23.332Z,100421.09
2023-03-18T04:03:51.426Z,100427.34
2023-03-18T04:06:19.544Z,100436.22
2023-03-18T04:08:47.669Z,100442.59
2023-03-18T04:11:15.832Z,100448.84
2023-03-18T04:13:45.612Z,100451.44
2023-03-18T04:16:14.509Z,100455.97
2023-03-18T04:18:42.638Z,100449.50
2023-03-18T04:21:10.772Z,100436.97
2023-03-18T04:23:38.879Z,100442.38
2023-03-18T04:26:07.027Z,100441.50
2023-03-18T04:28:35.207Z,100443.34
2023-03-18T04:31:05.752Z,100455.84
2023-03-18T04:33:34.276Z,100446.91
2023-03-18T04:36:02.482Z,100435.16
2023-03-18T04:38:30.608Z,100429.75
2023-03-18T04:40:58.690Z,100445.94
2023-03-18T04:43:26.799Z,100456.59
2023-03-18T04:45:54.941Z,100456.50
2023-03-18T04:48:24.368Z,100443.78
2023-03-18T04:50:52.492Z,100441.81
2023-03-18T04:53:20.602Z,100438.16
2023-03-18T04:55:50.039Z,100444.34
2023-03-18T04:58:18.323Z,100456.84
2023-03-18T05:00:46.466Z,100454.78
2023-03-18T05:03:14.591Z,100449.28
2023-03-18T05:05:44.053Z,100441.94
2023-03-18T05:08:12.847Z,100447.34
2023-03-18T05:10:41.392Z,100451.88
2023-03-18T05:13:10.686Z,100453.72
2023-03-18T05:15:38.790Z,100451.97
2023-03-18T05:18:06.946Z,100452.97
2023-03-18T05:20:36.037Z,100457.59
2023-03-18T05:23:05.851Z,100453.19
2023-03-18T05:25:34.248Z,100447.03
2023-03-18T05:28:02.604Z,100450.69
2023-03-18T05:30:30.748Z,100448.00
2023-03-18T05:32:58.873Z,100451.63
2023-03-18T05:35:27.584Z,100447.22
2023-03-18T05:37:55.866Z,100449.06
2023-03-18T05:40:25.455Z,100462.63
2023-03-18T05:42:56.630Z,100462.63
2023-03-18T05:45:25.072Z,100468.78
2023-03-18T05:47:53.476Z,100475.81
2023-03-18T05:50:30.083Z,100461.38
2023-03-18T05:52:58.455Z,100465.91
2023-03-18T05:55:28.376Z,100464.06
2023-03-18T05:57:57.064Z,100471.28
2023-03-18T06:00:25.797Z,100467.63
2023-03-18T06:02:53.999Z,100471.41
2023-03-18T06:05:22.910Z,100476.88
2023-03-18T06:07:51.623Z,100484.19
2023-03-18T06:10:20.014Z,100486.91
2023-03-18T06:12:49.773Z,100488.72
2023-03-18T06:15:18.832Z,100483.44
2023-03-18T06:17:47.309Z,100495.19
2023-03-18T06:20:16.319Z,100488.09
2023-03-18T06:22:48.999Z,100489.69
2023-03-18T06:25:19.282Z,100491.44
2023-03-18T06:27:47.999Z,100495.84
2023-03-18T06:30:18.986Z,100495.75
2023-03-18T06:32:47.223Z,100503.75
2023-03-18T06:35:15.668Z,100500.09
2023-03-18T06:37:43.761Z,100499.97
2023-03-18T06:40:13.318Z,100505.38
2023-03-18T06:42:41.852Z,100501.50
2023-03-18T06:45:10.723Z,100503.00
2023-03-18T06:47:40.988Z,100509.06
2023-03-18T06:50:10.316Z,100514.25
2023-03-18T06:52:38.576Z,100514.88
2023-03-18T06:55:07.699Z,100515.63
2023-03-18T06:57:35.984Z,100514.59
2023-03-18T07:00:05.134Z,100508.88
2023-03-18T07:02:33.561Z,100511.00
2023-03-18T07:05:04.372Z,100524.19
2023-03-18T07:07:32.511Z,100522.16
2023-03-18T07:10:00.651Z,100520.94
2023-03-18T07:12:28.788Z,100526.81
2023-03-18T07:14:57.200Z,100528.97
2023-03-18T07:17:25.393Z,100539.09
2023-03-18T07:19:53.470Z,100532.84
2023-03-18T07:22:23.269Z,100546.31
2023-03-18T07:24:53.328Z,100543.19
2023-03-18T07:27:21.825Z,100549.88
2023-03-18T07:29:50.036Z,100557.47
2023-03-18T07:32:19.176Z,100575.28
2023-03-18T07:34:48.781Z,100574.53
2023-03-18T07:37:17.136Z,100569.38
2023-03-18T07:39:46.853Z,100571.94
2023-03-18T07:42:15.335Z,100572.81
2023-03-18T07:44:43.464Z,100574.31
2023-03-18T07:47:11.983Z,100574.75
2023-03-18T07:49:40.058Z,100574.53
2023-03-18T07:52:08.723Z,100581.41
2023-03-18T07:54:36.979Z,100580.13
2023-03-18T07:57:07.008Z,100566.91
2023-03-18T07:59:35.386Z,100565.03
2023-03-18T08:02:04.846Z,100558.78
2023-03-18T08:04:33.331Z,100568.38
2023-03-18T08:07:01.538Z,100580.44
2023-03-18T08:09:29.709Z,100585.19
2023-03-18T08:11:57.885Z,100572.41
2023-03-18T08:14:27.633Z,100583.25
2023-03-18T08:16:55.703Z,100577.31
2023-03-18T08:19:23.981Z,100576.81
2023-03-18T08:21:52.090Z,100579.53
2023-03-18T08:24:20.229Z,100585.91
2023-03-18T08:26:48.388Z,100584.44
2023-03-18T08:29:16.505Z,100592.84
2023-03-18T08:31:46.450Z,100587.69
2023-03-18T08:34:14.603Z,100591.94
2023-03-18T08:36:43.318Z,100592.16
2023-03-18T08:39:11.389Z,100600.41
2023-03-18T08:41:40.229Z,100598.94
2023-03-18T08:44:10.861Z,100594.38
2023-03-18T08:46:39.319Z,100599.56
2023-03-18T08:49:10.311Z,100603.00
2023-03-18T08:51:38.551Z,100602.78
2023-03-18T08:54:08.214Z,100603.50
2023-03-18T08:56:36.500Z,100622.47
2023-03-18T08:59:04.571Z,100618.78
2023-03-18T09:01:33.067Z,100621.13
2023-03-18T09:04:01.465Z,100630.38
2023-03-18T09:06:31.324Z,100636.78
2023-03-18T09:08:59.432Z,100644.03
2023-03-18T09:11:27.958Z,100646.38
2023-03-18T09:13:56.038Z,100641.16
2023-03-18T09:16:24.505Z,100654.97
2023-03-18T09:18:52.643Z,100648.00
2023-03-18T09:21:20.890Z,100646.09
2023-03-18T09:23:50.493Z,100653.22
2023-03-18T09:26:18.788Z,100658.09
2023-03-18T09:28:47.077Z,100653.47
2023-03-18T09:31:15.629Z,100652.09
2023-03-18T09:33:43.841Z,100652.75
2023-03-18T09:36:12.349Z,100659.63
2023-03-18T09:38:41.290Z,100661.22
2023-03-18T09:41:22.698Z,100665.47
2023-03-18T09:44:04.753Z,100661.72
2023-03-18T09:46:38.759Z,100658.78
2023-03-18T09:49:17.997Z,100659.06
2023-03-18T09:51:56.119Z,100669.91
2023-03-18T09:54:30.670Z,100659.47
2023-03-18T09:57:00.382Z,100664.63
2023-03-18T09:59:37.423Z,100669.97
2023-03-18T10:02:15.949Z,100680.03
2023-03-18T10:04:45.388Z,100683.72
2023-03-18T10:07:15.450Z,100681.56
2023-03-18T10:09:45.983Z,100679.00
2023-03-18T10:12:19.559Z,100695.41
2023-03-18T10:14:50.986Z,100684.88
2023-03-18T10:17:22.434Z,100688.66
2023-03-18T10:19:54.595Z,100689.16
2023-03-18T10:22:51.496Z,100687.78
2023-03-18T10:25:26.552Z,100687.59
2023-03-18T10:28:06.855Z,100689.47
2023-03-18T10:30:44.694Z,100690.50
2023-03-18T10:33:18.951Z,100695.56
2023-03-18T10:35:49.949Z,100701.59
2023-03-18T10:38:23.115Z,100714.56
2023-03-18T10:40:51.533Z,100721.09
2023-03-18T10:43:25.116Z,100725.63
2023-03-18T10:46:00.772Z,100732.91
2023-03-18T10:48:31.979Z,100724.19
2023-03-18T10:51:09.306Z,100724.56
2023-03-18T10:53:43.385Z,100724.25
2023-03-18T10:56:13.076Z,100725.94
2023-03-18T10:58:43.999Z,100711.28
2023-03-18T11:01:17.564Z,100712.84
2023-03-18T11:03:51.607Z,100704.25
2023-03-18T11:06:24.467Z,100702.41
2023-03-18T11:09:01.320Z,100705.47
2023-03-18T11:11:33.107Z,100711.50
2023-03-18T11:14:04.461Z,100710.19
2023-03-18T11:16:38.396Z,100718.06
2023-03-18T11:19:27.618Z,100716.84
2023-03-18T11:22:02.335Z,100715.38
2023-03-18T11:24:38.882Z,100718.22
2023-03-18T11:27:27.103Z,100713.84
2023-03-18T11:29:59.993Z,100726.69
2023-03-18T11:32:29.763Z,100735.97
2023-03-18T11:34:59.011Z,100743.88
2023-03-18T11:37:34.366Z,100746.16
2023-03-18T11:40:20.544Z,100744.94
2023-03-18T11:42:50.825Z,100741.16
2023-03-18T11:45:35.649Z,100739.75
2023-03-18T11:48:03.939Z,100742.31
2023-03-18T11:50:40.564Z,100744.44
2023-03-18T11:53:12.918Z,100748.88
2023-03-18T11:55:44.645Z,100747.41
2023-03-18T11:58:46.631Z,100751.63
2023-03-18T12:01:21.208Z,100754.50
2023-03-18T12:04:11.788Z,100749.44
2023-03-18T12:06:42.825Z,100755.50
2023-03-18T12:09:17.521Z,100749.50
2023-03-18T12:11:59.549Z,100753.84
2023-03-18T12:14:32.645Z,100757.75
2023-03-18T12:17:11.749Z,100759.38
2023-03-18T12:20:07.197Z,100769.00
2023-03-18T12:22:51.116Z,100764.53
2023-03-18T12:25:30.666Z,100765.69
2023-03-18T12:28:04.444Z,100767.25
2023-03-18T12:31:01.764Z,100778.53
2023-03-18T12:33:44.607Z,100780.75
2023-03-18T12:36:21.616Z,100782.81
2023-03-18T12:39:23.829Z,100794.84
2023-03-18T12:42:01.652Z,100791.53
2023-03-18T12:44:38.879Z,100795.38
2023-03-18T12:47:09.569Z,100794.81
2023-03-18T12:49:42.547Z,100797.97
2023-03-18T12:52:15.335Z,100798.97
2023-03-18T12:54:47.366Z,100795.41
2023-03-18T12:57:22.119Z,100799.34
2023-03-18T12:59:57.333Z,100801.97
2023-03-18T13:02:39.511Z,100801.97
2023-03-18T13:05:20.660Z,100802.19
2023-03-18T13:07:51.479Z,100816.03
2023-03-18T13:10:23.375Z,100803.66
2023-03-18T13:12:54.769Z,100810.47
2023-03-18T13:15:29.282Z,100810.59
2023-03-18T13:18:01.747Z,100816.38
2023-03-18T13:20:35.552Z,100811.66
2023-03-18T13:23:17.414Z,100815.00
2023-03-18T13:25:56.426Z,100809.13
2023-03-18T13:28:34.938Z,100815.66
2023-03-18T13:31:11.733Z,100819.41
2023-03-18T13:34:17.695Z,100819.38
2023-03-18T13:36:59.199Z,100814.22
2023-03-18T13:39:37.324Z,100815.66
2023-03-18T13:42:21.662Z,100818.75
2023-03-18T13:44:56.533Z,100830.19
2023-03-18T13:47:25.634Z,100825.91
2023-03-18T13:50:01.233Z,100822.13
2023-03-18T13:52:36.932Z,100808.41
2023-03-18T13:55:08.773Z,100811.97
2023-03-18T13:57:48.063Z,100805.75
2023-03-18T14:00:33.044Z,100806.13
2023-03-18T14:03:21.945Z,100810.75
2023-03-18T14:05:51.611Z,100805.81
2023-03-18T14:08:46.277Z,100802.94
2023-03-18T14:11:49.917Z,100815.31
2023-03-18T14:14:41.794Z,100823.28
2023-03-18T14:17:24.568Z,100817.25
2023-03-18T14:19:55.736Z,100824.47
2023-03-18T14:22:28.414Z,100818.31
2023-03-18T14:25:23.188Z,100809.47
2023-03-18T14:27:54.888Z,100821.41
2023-03-18T14:30:47.504Z,100819.25
2023-03-18T14:33:35.763Z,100820.41
2023-03-18T14:36:10.306Z,100822.44
2023-03-18T14:38:46.575Z,100832.22
2023-03-18T14:41:22.408Z,100830.66
2023-03-18T14:44:04.275Z,100835.25
2023-03-18T14:46:35.651Z,100836.09
2023-03-18T14:49:04.603Z,100836.38
2023-03-18T14:51:32.912Z,100842.84
2023-03-18T14:54:05.951Z,100840.28
2023-03-18T14:56:42.038Z,100836.81
2023-03-18T14:59:15.046Z,100833.53
2023-03-18T15:01:47.085Z,100831.81
2023-03-18T15:04:19.978Z,100840.81
2023-03-18T15:06:48.073Z,100845.00
2023-03-18T15:09:20.578Z,100845.56
2023-03-18T15:11:50.055Z,100842.19
2023-03-18T15:14:21.630Z,100844.81
2023-03-18T15:16:50.682Z,100844.78
2023-03-18T15:19:19.624Z,100844.78
2023-03-18T15:21:48.070Z,100843.78
2023-03-18T15:24:20.232Z,100850.22
2023-03-18T15:26:57.389Z,100850.13
2023-03-18T15:29:29.092Z,100858.53
2023-03-18T15:32:10.475Z,100846.44
2023-03-18T15:34:39.496Z,100847.09
2023-03-18T15:37:33.907Z,100853.03
2023-03-18T15:40:17.693Z,100856.47
2023-03-18T15:42:47.704Z,100857.03
2023-03-18T15:45:19.173Z,100859.88
2023-03-18T15:47:47.442Z,100858.53
2023-03-18T15:50:26.170Z,100862.00
2023-03-18T15:53:04.276Z,100862.25
2023-03-18T15:55:35.395Z,100869.63
2023-03-18T15:58:07.008Z,100864.50
2023-03-18T16:00:35.355Z,100859.28
2023-03-18T16:03:03.877Z,100874.09
2023-03-18T16:05:32.236Z,100875.19
2023-03-18T16:08:00.453Z,100873.69
2023-03-18T16:10:28.979Z,100878.19
2023-03-18T16:13:01.568Z,100877.28
2023-03-18T16:15:31.983Z,100883.31
2023-03-18T16:18:00.307Z,100894.09
2023-03-18T16:20:29.924Z,100892.81
2023-03-18T16:22:59.726Z,100884.19
2023-03-18T16:25:28.030Z,100895.13
2023-03-18T16:27:57.331Z,100892.66
2023-03-18T16:30:28.255Z,100893.97
2023-03-18T16:32:58.936Z,100896.06
2023-03-18T16:35:31.169Z,100896.47
2023-03-18T16:38:00.243Z,100894.34
2023-03-18T16:40:32.520Z,100898.47
2023-03-18T16:43:01.106Z,100904.00
2023-03-18T16:45:31.069Z,100901.41
2023-03-18T16:48:02.817Z,100897.09
2023-03-18T16:50:34.494Z,100896.34
2023-03-18T16:53:03.021Z,100892.22
2023-03-18T16:55:31.593Z,100891.72
2023-03-18T16:58:00.862Z,100902.09
2023-03-18T17:00:31.860Z,100890.19
2023-03-18T17:03:02.331Z,100900.69
2023-03-18T17:05:30.729Z,100908.38
2023-03-18T17:07:59.220Z,100913.16
2023-03-18T17:10:27.497Z,100910.88
2023-03-18T17:12:59.458Z,100921.16
2023-03-18T17:15:31.658Z,100912.72
2023-03-18T17:18:01.651Z,100922.44
2023-03-18T17:20:32.368Z,100928.59
2023-03-18T17:23:00.876Z,100923.81
2023-03-18T17:25:31.131Z,100933.44
2023-03-18T17:28:01.150Z,100931.34
2023-03-18T17:30:33.461Z,100935.53
2023-03-18T17:33:03.656Z,100932.56
2023-03-18T17:35:32.843Z,100932.22
2023-03-18T17:38:01.164Z,100935.44
2023-03-18T17:40:30.475Z,100942.28
2023-03-18T17:42:58.597Z,100948.09
2023-03-18T17:45:29.119Z,100949.44
2023-03-18T17:48:14.520Z,100949.09
2023-03-18T17:50:44.829Z,100953.22
2023-03-18T17:53:27.210Z,100948.41
2023-03-18T17:55:55.771Z,100955.19
2023-03-18T17:58:26.049Z,100960.97
2023-03-18T18:00:55.612Z,100960.28
2023-03-18T18:03:25.664Z,100958.00
2023-03-18T18:05:55.977Z,100958.38
2023-03-18T18:08:25.689Z,100951.63
2023-03-18T18:10:55.017Z,100955.75
2023-03-18T18:13:24.136Z,100960.66
2023-03-18T18:15:52.671Z,100956.53
2023-03-18T18:18:25.599Z,100957.84
2023-03-18T18:20:59.753Z,100957.38
2023-03-18T18:23:30.371Z,100955.03
2023-03-18T18:26:00.319Z,100952.72
2023-03-18T18:28:33.203Z,100962.88
2023-03-18T18:31:02.522Z,100953.25
2023-03-18T18:33:31.098Z,100965.00
2023-03-18T18:36:01.093Z,100949.88
2023-03-18T18:38:29.835Z,100954.59
2023-03-18T18:41:01.310Z,100954.94
2023-03-18T18:43:29.772Z,100952.53
2023-03-18T18:45:58.971Z,100960.88
2023-03-18T18:48:30.520Z,100960.19
2023-03-18T18:51:00.814Z,100956.78
2023-03-18T18:53:30.999Z,100963.38
2023-03-18T18:56:00.950Z,100961.75
2023-03-18T18:58:30.605Z,100969.06
2023-03-18T19:00:59.838Z,100961.94
2023-03-18T19:03:31.579Z,100963.75
2023-03-18T19:06:02.414Z,100975.50
2023-03-18T19:08:31.929Z,100971.22
2023-03-18T19:11:01.668Z,100980.16
2023-03-18T19:13:31.586Z,100973.06
2023-03-18T19:16:01.967Z,100978.53
2023-03-18T19:18:33.778Z,100981.41
2023-03-18T19:21:03.319Z,100984.19
2023-03-18T19:23:33.234Z,100985.34
2023-03-18T19:26:02.141Z,100984.72
2023-03-18T19:28:58.312Z,100982.19
2023-03-18T19:31:30.631Z,100987.75
2023-03-18T19:34:00.857Z,100986.19
2023-03-18T19:36:31.746Z,100983.66
2023-03-18T19:39:01.154Z,100985.69
2023-03-18T19:41:29.900Z,100988.38
2023-03-18T19:44:00.603Z,100985.59
2023-03-18T19:46:32.539Z,100989.06
2023-03-18T19:49:00.926Z,100985.31
2023-03-18T19:51:31.230Z,100987.91
2023-03-18T19:53:59.560Z,100990.56
2023-03-18T19:56:28.912Z,100991.41
2023-03-18T19:58:58.813Z,100998.53
2023-03-18T20:01:29.137Z,101000.28
2023-03-18T20:03:59.132Z,100996.63
2023-03-18T20:06:27.567Z,100994.69
2023-03-18T20:08:57.108Z,100996.34
2023-03-18T20:11:25.286Z,100987.16
2023-03-18T20:13:54.577Z,100989.66
2023-03-18T20:16:23.557Z,100989.41
2023-03-18T20:18:51.933Z,100988.09
2023-03-18T20:21:29.554Z,100986.00
2023-03-18T20:24:02.729Z,100983.97
2023-03-18T20:26:30.882Z,100985.56
2023-03-18T20:28:58.972Z,100985.41
2023-03-18T20:31:27.173Z,100995.03
2023-03-18T20:33:56.011Z,100991.28
2023-03-18T20:36:24.133Z,100990.41
2023-03-18T20:38:52.430Z,101000.28
2023-03-18T20:41:21.928Z,100992.88
2023-03-18T20:43:50.225Z,100991.72
2023-03-18T20:46:18.864Z,100980.75
2023-03-18T20:48:49.324Z,100981.56
2023-03-18T20:51:21.159Z,100990.41
2023-03-18T20:53:49.444Z,100997.44
2023-03-18T20:56:19.394Z,100997.34
2023-03-18T20:58:48.945Z,100996.28
2023-03-18T21:01:18.320Z,100997.88
2023-03-18T21:03:46.575Z,100992.38
2023-03-18T21:06:16.407Z,100996.63
2023-03-18T21:08:44.603Z,100998.25
2023-03-18T21:11:21.880Z,100990.94
2023-03-18T21:13:51.414Z,100994.34
2023-03-18T21:16:21.083Z,100991.56
2023-03-18T21:18:49.932Z,100995.00
2023-03-18T21:21:23.320Z,100997.53
2023-03-18T21:23:52.605Z,101003.69
2023-03-18T21:26:20.756Z,100994.63
2023-03-18T21:28:48.889Z,100999.06
2023-03-18T21:31:24.818Z,101002.47
2023-03-18T21:33:53.534Z,100989.75
2023-03-18T21:36:21.785Z,100996.88
2023-03-18T21:38:50.169Z,100989.56
2023-03-18T21:41:22.899Z,100996.47
2023-03-18T21:43:51.640Z,100992.66
2023-03-18T21:46:22.596Z,100997.84
2023-03-18T21:48:50.920Z,100996.78
2023-03-18T21:51:37.550Z,100997.50
2023-03-18T21:54:06.717Z,100987.63
2023-03-18T21:56:34.838Z,100988.50
2023-03-18T21:59:02.901Z,100984.88
2023-03-18T22:01:32.567Z,100986.59
2023-03-18T22:04:00.777Z,100978.41
2023-03-18T22:06:28.952Z,100977.25
2023-03-18T22:08:57.898Z,100968.97
2023-03-18T22:11:26.139Z,100975.13
2023-03-18T22:13:54.500Z,100969.56
2023-03-18T22:16:22.657Z,100974.75
2023-03-18T22:18:52.400Z,100971.94
2023-03-18T22:21:23.187Z,100979.94
2023-03-18T22:23:51.526Z,100965.59
2023-03-18T22:26:21.321Z,100966.34
2023-03-18T22:28:50.522Z,100966.47
2023-03-18T22:31:21.358Z,100963.00
2023-03-18T22:33:49.637Z,100962.22
2023-03-18T22:36:21.646Z,100964.94
2023-03-18T22:38:50.915Z,100965.03
2023-03-18T22:41:21.569Z,100958.06
2023-03-18T22:43:49.995Z,100960.97
2023-03-18T22:46:18.292Z,100962.22
2023-03-18T22:48:46.466Z,100957.97
2023-03-18T22:51:23.630Z,100956.44
2023-03-18T22:53:53.944Z,100961.16
2023-03-18T22:56:25.046Z,100959.53
2023-03-18T22:58:53.428Z,100954.22
2023-03-18T23:01:28.117Z,100955.34
2023-03-18T23:03:56.205Z,100956.41
2023-03-18T23:06:27.219Z,100957.56
2023-03-18T23:08:55.376Z,100955.84
2023-03-18T23:11:23.477Z,100958.59
2023-03-18T23:13:52.092Z,100959.66
2023-03-18T23:16:22.723Z,100954.47
2023-03-18T23:18:51.696Z,100959.19
2023-03-18T23:21:21.602Z,100955.72
2023-03-18T23:23:51.561Z,100964.06
2023-03-18T23:26:19.765Z,100959.84
2023-03-18T23:28:48.990Z,100963.69
2023-03-18T23:31:17.681Z,100956.63
2023-03-18T23:33:47.097Z,100956.63
2023-03-18T23:36:15.256Z,100954.91
2023-03-18T23:38:43.432Z,100955.94
2023-03-18T23:41:12.914Z,100958.75
2023-03-18T23:43:41.168Z,100962.22
2023-03-18T23:46:09.329Z,100951.44
2023-03-18T23:48:37.437Z,100955.94
2023-03-18T23:51:05.689Z,100954.91
2023-03-18T23:53:33.821Z,100955.84
2023-03-18T23:56:01.915Z,100957.69
2023-03-18T23:58:31.323Z,100957.69
